sensor_id;sensor_type;location;lat;lon;timestamp;pressure;altitude;pressure_sealevel;temperature;humidity
11339;BME280;5724;42.684;23.252;2022-08-01T00:00:04;94292.16;;;18.55;62.72
11339;BME280;5724;42.684;23.252;2022-08-01T00:02:30;94283.56;;;18.42;63.10
11339;BME280;5724;42.684;23.252;2022-08-01T00:04:56;94286.25;;;18.53;62.88
11339;BME280;5724;42.684;23.252;2022-08-01T00:07:22;94290.28;;;18.45;62.79
11339;BME280;5724;42.684;23.252;2022-08-01T00:09:48;94278.91;;;18.36;63.04
11339;BME280;5724;42.684;23.252;2022-08-01T00:12:13;94287.16;;;18.39;62.84
11339;BME280;5724;42.684;23.252;2022-08-01T00:14:39;94282.09;;;18.34;62.76
11339;BME280;5724;42.684;23.252;2022-08-01T00:17:04;94287.22;;;18.32;62.70
11339;BME280;5724;42.684;23.252;2022-08-01T00:19:30;94284.13;;;18.26;62.76
11339;BME280;5724;42.684;23.252;2022-08-01T00:21:55;94293.53;;;18.36;62.80
11339;BME280;5724;42.684;23.252;2022-08-01T00:24:21;94284.13;;;18.26;62.81
11339;BME280;5724;42.684;23.252;2022-08-01T00:26:46;94293.16;;;18.30;62.39
11339;BME280;5724;42.684;23.252;2022-08-01T00:29:12;94293.53;;;18.33;62.46
11339;BME280;5724;42.684;23.252;2022-08-01T00:31:37;94288.88;;;18.26;62.42
11339;BME280;5724;42.684;23.252;2022-08-01T00:34:03;94280.06;;;18.38;61.93
11339;BME280;5724;42.684;23.252;2022-08-01T00:36:28;94288.78;;;18.37;61.64
11339;BME280;5724;42.684;23.252;2022-08-01T00:38:54;94284.84;;;18.34;61.12
11339;BME280;5724;42.684;23.252;2022-08-01T00:41:20;94287.53;;;18.41;61.02
11339;BME280;5724;42.684;23.252;2022-08-01T00:43:45;94284.44;;;18.32;60.99
11339;BME280;5724;42.684;23.252;2022-08-01T00:46:11;94286.84;;;18.34;61.82
11339;BME280;5724;42.684;23.252;2022-08-01T00:48:36;94285.69;;;18.27;61.32
11339;BME280;5724;42.684;23.252;2022-08-01T00:51:03;94285.44;;;18.15;61.67
11339;BME280;5724;42.684;23.252;2022-08-01T00:53:29;94281.84;;;18.14;61.06
11339;BME280;5724;42.684;23.252;2022-08-01T00:55:56;94288.72;;;17.99;62.94
11339;BME280;5724;42.684;23.252;2022-08-01T00:58:22;94287.06;;;17.46;64.52
11339;BME280;5724;42.684;23.252;2022-08-01T01:00:47;94278.38;;;17.51;64.74
11339;BME280;5724;42.684;23.252;2022-08-01T01:03:13;94273.75;;;17.30;65.13
11339;BME280;5724;42.684;23.252;2022-08-01T01:05:45;94274.22;;;17.18;66.36
11339;BME280;5724;42.684;23.252;2022-08-01T01:08:18;94257.28;;;17.12;66.48
11339;BME280;5724;42.684;23.252;2022-08-01T01:11:17;94247.78;;;17.17;66.67
11339;BME280;5724;42.684;23.252;2022-08-01T01:13:49;94259.50;;;17.39;66.24
11339;BME280;5724;42.684;23.252;2022-08-01T01:16:19;94248.06;;;17.40;65.85
11339;BME280;5724;42.684;23.252;2022-08-01T01:18:57;94256.63;;;17.57;64.82
11339;BME280;5724;42.684;23.252;2022-08-01T01:21:44;94259.84;;;17.44;64.10
11339;BME280;5724;42.684;23.252;2022-08-01T01:29:54;94261.75;;;17.55;61.18
11339;BME280;5724;42.684;23.252;2022-08-01T01:35:00;94243.53;;;17.68;59.84
11339;BME280;5724;42.684;23.252;2022-08-01T01:37:28;94241.13;;;17.73;59.06
11339;BME280;5724;42.684;23.252;2022-08-01T01:39:56;94236.41;;;17.70;59.30
11339;BME280;5724;42.684;23.252;2022-08-01T01:42:24;94241.44;;;17.83;59.69
11339;BME280;5724;42.684;23.252;2022-08-01T01:44:51;94237.00;;;17.96;59.04
11339;BME280;5724;42.684;23.252;2022-08-01T01:47:17;94216.63;;;17.79;59.18
11339;BME280;5724;42.684;23.252;2022-08-01T01:49:45;94229.97;;;17.84;58.57
11339;BME280;5724;42.684;23.252;2022-08-01T01:52:13;94223.75;;;17.77;57.53
11339;BME280;5724;42.684;23.252;2022-08-01T01:54:45;94221.31;;;17.82;57.14
11339;BME280;5724;42.684;23.252;2022-08-01T01:57:12;94226.84;;;17.82;56.02
11339;BME280;5724;42.684;23.252;2022-08-01T01:59:39;94227.63;;;17.86;55.12
11339;BME280;5724;42.684;23.252;2022-08-01T02:02:06;94197.75;;;17.67;54.43
11339;BME280;5724;42.684;23.252;2022-08-01T02:04:35;94225.63;;;17.87;54.30
11339;BME280;5724;42.684;23.252;2022-08-01T02:07:02;94225.63;;;17.87;54.05
11339;BME280;5724;42.684;23.252;2022-08-01T02:09:28;94210.31;;;17.79;53.83
11339;BME280;5724;42.684;23.252;2022-08-01T02:11:57;94219.75;;;17.81;53.70
11339;BME280;5724;42.684;23.252;2022-08-01T02:14:24;94216.88;;;17.92;53.06
11339;BME280;5724;42.684;23.252;2022-08-01T02:16:53;94217.19;;;18.01;51.30
11339;BME280;5724;42.684;23.252;2022-08-01T02:19:20;94195.84;;;18.05;50.99
11339;BME280;5724;42.684;23.252;2022-08-01T02:22:01;94209.53;;;18.19;49.85
11339;BME280;5724;42.684;23.252;2022-08-01T02:27:17;94204.72;;;18.23;50.53
11339;BME280;5724;42.684;23.252;2022-08-01T02:29:58;94208.31;;;18.24;50.61
11339;BME280;5724;42.684;23.252;2022-08-01T02:32:48;94202.78;;;18.24;51.81
11339;BME280;5724;42.684;23.252;2022-08-01T02:35:19;94207.91;;;18.22;50.83
11339;BME280;5724;42.684;23.252;2022-08-01T02:37:47;94207.88;;;18.25;50.80
11339;BME280;5724;42.684;23.252;2022-08-01T02:40:14;94205.13;;;18.22;50.76
11339;BME280;5724;42.684;23.252;2022-08-01T02:42:47;94209.00;;;18.31;50.48
11339;BME280;5724;42.684;23.252;2022-08-01T02:45:14;94216.09;;;18.33;50.67
11339;BME280;5724;42.684;23.252;2022-08-01T02:47:44;94213.03;;;18.23;51.14
11339;BME280;5724;42.684;23.252;2022-08-01T02:50:12;94204.00;;;18.19;51.19
11339;BME280;5724;42.684;23.252;2022-08-01T02:52:41;94202.78;;;18.20;51.31
11339;BME280;5724;42.684;23.252;2022-08-01T02:55:08;94204.34;;;18.21;51.37
11339;BME280;5724;42.684;23.252;2022-08-01T02:57:35;94209.09;;;18.21;51.75
11339;BME280;5724;42.684;23.252;2022-08-01T03:00:03;94200.06;;;18.17;51.71
11339;BME280;5724;42.684;23.252;2022-08-01T03:02:31;94213.84;;;18.24;52.18
11339;BME280;5724;42.684;23.252;2022-08-01T03:04:58;94207.13;;;18.21;51.77
11339;BME280;5724;42.684;23.252;2022-08-01T03:07:26;94209.81;;;18.28;51.43
11339;BME280;5724;42.684;23.252;2022-08-01T03:09:55;94210.59;;;18.29;51.17
11339;BME280;5724;42.684;23.252;2022-08-01T03:12:26;94208.63;;;18.29;51.32
11339;BME280;5724;42.684;23.252;2022-08-01T03:14:54;94201.81;;;18.38;51.11
11339;BME280;5724;42.684;23.252;2022-08-01T03:17:22;94208.97;;;18.35;51.45
11339;BME280;5724;42.684;23.252;2022-08-01T03:19:51;94212.94;;;18.34;51.49
11339;BME280;5724;42.684;23.252;2022-08-01T03:22:18;94217.16;;;18.42;51.08
11339;BME280;5724;42.684;23.252;2022-08-01T03:24:50;94225.09;;;18.44;50.78
11339;BME280;5724;42.684;23.252;2022-08-01T03:27:18;94212.75;;;18.48;50.55
11339;BME280;5724;42.684;23.252;2022-08-01T03:29:45;94220.00;;;18.39;50.68
11339;BME280;5724;42.684;23.252;2022-08-01T03:32:12;94210.50;;;18.40;50.71
11339;BME280;5724;42.684;23.252;2022-08-01T03:34:39;94220.22;;;18.55;50.80
11339;BME280;5724;42.684;23.252;2022-08-01T03:37:27;94221.78;;;18.56;50.47
11339;BME280;5724;42.684;23.252;2022-08-01T03:40:13;94224.13;;;18.57;50.05
11339;BME280;5724;42.684;23.252;2022-08-01T03:42:48;94229.59;;;18.61;50.34
11339;BME280;5724;42.684;23.252;2022-08-01T03:45:22;94228.81;;;18.64;50.22
11339;BME280;5724;42.684;23.252;2022-08-01T03:47:49;94216.19;;;18.59;49.78
11339;BME280;5724;42.684;23.252;2022-08-01T03:50:21;94217.88;;;18.53;50.22
11339;BME280;5724;42.684;23.252;2022-08-01T03:52:49;94220.66;;;18.50;50.49
11339;BME280;5724;42.684;23.252;2022-08-01T03:55:16;94217.44;;;18.55;50.40
11339;BME280;5724;42.684;23.252;2022-08-01T03:57:44;94215.47;;;18.55;50.13
11339;BME280;5724;42.684;23.252;2022-08-01T04:00:10;94211.81;;;18.66;50.16
11339;BME280;5724;42.684;23.252;2022-08-01T04:02:37;94209.16;;;18.55;50.70
11339;BME280;5724;42.684;23.252;2022-08-01T04:05:03;94214.31;;;18.53;50.04
11339;BME280;5724;42.684;23.252;2022-08-01T04:07:33;94211.06;;;18.58;50.37
11339;BME280;5724;42.684;23.252;2022-08-01T04:10:01;94222.81;;;18.69;50.12
11339;BME280;5724;42.684;23.252;2022-08-01T04:12:26;94223.59;;;18.73;50.01
11339;BME280;5724;42.684;23.252;2022-08-01T04:14:52;94220.28;;;18.85;49.83
11339;BME280;5724;42.684;23.252;2022-08-01T04:17:18;94229.31;;;18.90;49.45
11339;BME280;5724;42.684;23.252;2022-08-01T04:19:44;94225.72;;;18.93;49.35
11339;BME280;5724;42.684;23.252;2022-08-01T04:22:11;94230.41;;;18.96;49.27
11339;BME280;5724;42.684;23.252;2022-08-01T04:24:39;94213.44;;;18.94;49.41
11339;BME280;5724;42.684;23.252;2022-08-01T04:27:13;94217.69;;;19.02;49.28
11339;BME280;5724;42.684;23.252;2022-08-01T04:29:41;94225.88;;;19.09;49.17
11339;BME280;5724;42.684;23.252;2022-08-01T04:32:11;94222.19;;;19.19;49.28
11339;BME280;5724;42.684;23.252;2022-08-01T04:34:39;94216.56;;;19.26;49.84
11339;BME280;5724;42.684;23.252;2022-08-01T04:37:09;94216.91;;;19.28;49.52
11339;BME280;5724;42.684;23.252;2022-08-01T04:39:36;94217.19;;;19.37;49.11
11339;BME280;5724;42.684;23.252;2022-08-01T04:42:04;94214.22;;;19.25;48.82
11339;BME280;5724;42.684;23.252;2022-08-01T04:44:29;94219.81;;;19.21;49.19
11339;BME280;5724;42.684;23.252;2022-08-01T04:46:59;94238.34;;;19.24;49.72
11339;BME280;5724;42.684;23.252;2022-08-01T04:49:25;94227.34;;;19.21;49.94
11339;BME280;5724;42.684;23.252;2022-08-01T04:51:55;94227.09;;;19.08;50.05
11339;BME280;5724;42.684;23.252;2022-08-01T04:54:32;94222.75;;;19.07;50.86
11339;BME280;5724;42.684;23.252;2022-08-01T04:56:59;94232.59;;;19.11;49.92
11339;BME280;5724;42.684;23.252;2022-08-01T04:59:26;94224.94;;;18.92;50.75
11339;BME280;5724;42.684;23.252;2022-08-01T05:04:35;94223.97;;;19.06;58.15
11339;BME280;5724;42.684;23.252;2022-08-01T05:07:01;94237.59;;;18.93;58.46
11339;BME280;5724;42.684;23.252;2022-08-01T05:09:27;94231.41;;;18.41;61.54
11339;BME280;5724;42.684;23.252;2022-08-01T05:11:53;94226.72;;;17.96;61.85
11339;BME280;5724;42.684;23.252;2022-08-01T05:14:18;94223.63;;;17.91;61.68
11339;BME280;5724;42.684;23.252;2022-08-01T05:16:45;94183.56;;;17.61;63.06
11339;BME280;5724;42.684;23.252;2022-08-01T05:19:11;94219.59;;;17.99;61.66
11339;BME280;5724;42.684;23.252;2022-08-01T05:21:37;94226.69;;;18.00;61.71
11339;BME280;5724;42.684;23.252;2022-08-01T05:24:04;94226.47;;;18.21;59.91
11339;BME280;5724;42.684;23.252;2022-08-01T05:26:30;94235.91;;;18.27;61.64
11339;BME280;5724;42.684;23.252;2022-08-01T05:28:55;94225.53;;;18.39;58.86
11339;BME280;5724;42.684;23.252;2022-08-01T05:31:21;94237.72;;;18.45;61.43
11339;BME280;5724;42.684;23.252;2022-08-01T05:33:46;94228.50;;;18.55;59.87
11339;BME280;5724;42.684;23.252;2022-08-01T05:36:13;94230.00;;;18.63;56.00
11339;BME280;5724;42.684;23.252;2022-08-01T05:38:38;94220.28;;;18.85;53.37
11339;BME280;5724;42.684;23.252;2022-08-01T05:41:04;94235.25;;;18.88;52.78
11339;BME280;5724;42.684;23.252;2022-08-01T05:43:29;94242.19;;;19.03;53.36
11339;BME280;5724;42.684;23.252;2022-08-01T05:45:55;94233.31;;;19.15;51.49
11339;BME280;5724;42.684;23.252;2022-08-01T05:48:21;94234.81;;;19.24;51.30
11339;BME280;5724;42.684;23.252;2022-08-01T05:50:46;94247.72;;;19.34;50.22
11339;BME280;5724;42.684;23.252;2022-08-01T05:53:13;94239.25;;;19.44;49.20
11339;BME280;5724;42.684;23.252;2022-08-01T05:55:38;94246.25;;;19.53;49.81
11339;BME280;5724;42.684;23.252;2022-08-01T05:58:04;94244.06;;;19.40;49.45
11339;BME280;5724;42.684;23.252;2022-08-01T06:00:29;94244.63;;;19.55;50.07
11339;BME280;5724;42.684;23.252;2022-08-01T06:02:55;94253.38;;;19.54;49.80
11339;BME280;5724;42.684;23.252;2022-08-01T06:05:20;94241.56;;;19.50;48.70
11339;BME280;5724;42.684;23.252;2022-08-01T06:07:46;94251.00;;;19.56;48.75
11339;BME280;5724;42.684;23.252;2022-08-01T06:10:11;94240.25;;;19.58;49.23
11339;BME280;5724;42.684;23.252;2022-08-01T06:12:37;94247.81;;;19.54;48.66
11339;BME280;5724;42.684;23.252;2022-08-01T06:15:04;94231.03;;;19.37;49.24
11339;BME280;5724;42.684;23.252;2022-08-01T06:17:30;94249.78;;;19.26;49.55
11339;BME280;5724;42.684;23.252;2022-08-01T06:19:56;94237.84;;;19.33;49.58
11339;BME280;5724;42.684;23.252;2022-08-01T06:22:21;94228.88;;;19.49;49.34
11339;BME280;5724;42.684;23.252;2022-08-01T06:24:47;94231.13;;;19.61;50.13
11339;BME280;5724;42.684;23.252;2022-08-01T06:27:13;94241.69;;;19.69;49.58
11339;BME280;5724;42.684;23.252;2022-08-01T06:29:38;94239.31;;;19.68;49.46
11339;BME280;5724;42.684;23.252;2022-08-01T06:32:04;94241.69;;;19.69;49.63
11339;BME280;5724;42.684;23.252;2022-08-01T06:34:29;94241.00;;;19.62;49.86
11339;BME280;5724;42.684;23.252;2022-08-01T06:36:55;94227.59;;;19.84;49.19
11339;BME280;5724;42.684;23.252;2022-08-01T06:39:20;94240.91;;;19.92;49.45
11339;BME280;5724;42.684;23.252;2022-08-01T06:41:46;94242.06;;;19.95;49.38
11339;BME280;5724;42.684;23.252;2022-08-01T06:44:13;94230.53;;;19.96;49.35
11339;BME280;5724;42.684;23.252;2022-08-01T06:46:38;94230.78;;;20.06;48.93
11339;BME280;5724;42.684;23.252;2022-08-01T06:49:04;94229.94;;;19.85;49.73
11339;BME280;5724;42.684;23.252;2022-08-01T06:51:29;94224.03;;;20.07;49.65
11339;BME280;5724;42.684;23.252;2022-08-01T06:53:55;94219.75;;;20.25;49.51
11339;BME280;5724;42.684;23.252;2022-08-01T06:56:20;94217.22;;;20.11;50.25
11339;BME280;5724;42.684;23.252;2022-08-01T06:58:46;94224.47;;;20.28;49.88
11339;BME280;5724;42.684;23.252;2022-08-01T07:01:11;94209.31;;;20.33;49.58
11339;BME280;5724;42.684;23.252;2022-08-01T07:03:37;94206.75;;;20.42;50.30
11339;BME280;5724;42.684;23.252;2022-08-01T07:06:03;94212.81;;;20.37;50.19
11339;BME280;5724;42.684;23.252;2022-08-01T07:08:29;94219.06;;;20.41;50.78
11339;BME280;5724;42.684;23.252;2022-08-01T07:10:54;94224.31;;;20.36;50.63
11339;BME280;5724;42.684;23.252;2022-08-01T07:13:21;94211.34;;;20.52;50.48
11339;BME280;5724;42.684;23.252;2022-08-01T07:15:50;94227.88;;;20.60;50.36
11339;BME280;5724;42.684;23.252;2022-08-01T07:18:16;94228.44;;;20.71;49.61
11339;BME280;5724;42.684;23.252;2022-08-01T07:20:42;94224.47;;;20.72;50.13
11339;BME280;5724;42.684;23.252;2022-08-01T07:23:08;94225.53;;;20.78;50.31
11339;BME280;5724;42.684;23.252;2022-08-01T07:25:33;94230.66;;;20.79;49.76
11339;BME280;5724;42.684;23.252;2022-08-01T07:27:59;94235.19;;;20.50;51.40
11339;BME280;5724;42.684;23.252;2022-08-01T07:30:24;94235.19;;;20.26;50.91
11339;BME280;5724;42.684;23.252;2022-08-01T07:32:50;94221.53;;;20.36;49.87
11339;BME280;5724;42.684;23.252;2022-08-01T07:35:16;94248.81;;;20.41;50.01
11339;BME280;5724;42.684;23.252;2022-08-01T07:37:41;94232.06;;;20.24;51.29
11339;BME280;5724;42.684;23.252;2022-08-01T07:40:07;94237.94;;;20.26;51.55
11339;BME280;5724;42.684;23.252;2022-08-01T07:42:33;94223.91;;;20.37;50.50
11339;BME280;5724;42.684;23.252;2022-08-01T07:44:58;94214.63;;;20.24;49.50
11339;BME280;5724;42.684;23.252;2022-08-01T07:47:25;94223.13;;;20.37;50.07
11339;BME280;5724;42.684;23.252;2022-08-01T07:49:51;94235.13;;;20.53;49.58
11339;BME280;5724;42.684;23.252;2022-08-01T07:52:16;94230.34;;;20.54;50.33
11339;BME280;5724;42.684;23.252;2022-08-01T07:54:42;94238.84;;;20.67;49.17
11339;BME280;5724;42.684;23.252;2022-08-01T07:57:07;94244.47;;;20.40;49.19
11339;BME280;5724;42.684;23.252;2022-08-01T07:59:33;94217.25;;;20.54;49.84
11339;BME280;5724;42.684;23.252;2022-08-01T08:01:59;94223.31;;;20.89;48.90
11339;BME280;5724;42.684;23.252;2022-08-01T08:04:25;94244.97;;;20.78;49.85
11339;BME280;5724;42.684;23.252;2022-08-01T08:06:51;94228.66;;;21.00;49.85
11339;BME280;5724;42.684;23.252;2022-08-01T08:09:18;94245.03;;;20.74;50.03
11339;BME280;5724;42.684;23.252;2022-08-01T08:11:45;94235.31;;;20.43;49.63
11339;BME280;5724;42.684;23.252;2022-08-01T08:14:10;94240.97;;;20.36;50.00
11339;BME280;5724;42.684;23.252;2022-08-01T08:16:37;94227.50;;;20.34;50.62
11339;BME280;5724;42.684;23.252;2022-08-01T08:19:02;94264.09;;;20.52;50.28
11339;BME280;5724;42.684;23.252;2022-08-01T08:21:28;94228.56;;;20.64;49.76
11339;BME280;5724;42.684;23.252;2022-08-01T08:23:55;94230.34;;;20.94;49.78
11339;BME280;5724;42.684;23.252;2022-08-01T08:26:39;94246.53;;;20.79;49.91
11339;BME280;5724;42.684;23.252;2022-08-01T08:29:05;94244.13;;;20.81;49.72
11339;BME280;5724;42.684;23.252;2022-08-01T08:31:30;94219.00;;;20.88;50.02
11339;BME280;5724;42.684;23.252;2022-08-01T08:33:56;94223.50;;;21.18;50.27
11339;BME280;5724;42.684;23.252;2022-08-01T08:36:21;94250.19;;;20.96;47.85
11339;BME280;5724;42.684;23.252;2022-08-01T08:38:47;94249.53;;;20.88;48.19
11339;BME280;5724;42.684;23.252;2022-08-01T08:41:12;94248.88;;;21.00;48.42
11339;BME280;5724;42.684;23.252;2022-08-01T08:43:38;94246.25;;;20.93;47.13
11339;BME280;5724;42.684;23.252;2022-08-01T08:46:05;94245.13;;;20.91;47.11
11339;BME280;5724;42.684;23.252;2022-08-01T08:48:31;94255.00;;;20.72;46.18
11339;BME280;5724;42.684;23.252;2022-08-01T08:50:57;94219.78;;;20.69;46.69
11339;BME280;5724;42.684;23.252;2022-08-01T08:53:24;94240.97;;;20.99;46.97
11339;BME280;5724;42.684;23.252;2022-08-01T08:55:51;94239.28;;;21.05;46.29
11339;BME280;5724;42.684;23.252;2022-08-01T08:58:18;94215.75;;;21.09;45.80
11339;BME280;5724;42.684;23.252;2022-08-01T09:00:44;94207.63;;;21.19;45.91
11339;BME280;5724;42.684;23.252;2022-08-01T09:03:11;94253.66;;;21.20;44.63
11339;BME280;5724;42.684;23.252;2022-08-01T09:05:37;94226.63;;;21.20;45.83
11339;BME280;5724;42.684;23.252;2022-08-01T09:08:06;94206.16;;;21.50;45.84
11339;BME280;5724;42.684;23.252;2022-08-01T09:10:32;94191.41;;;21.53;45.14
11339;BME280;5724;42.684;23.252;2022-08-01T09:13:12;94192.63;;;21.68;46.30
11339;BME280;5724;42.684;23.252;2022-08-01T09:15:47;94217.97;;;21.70;46.23
11339;BME280;5724;42.684;23.252;2022-08-01T09:23:34;94199.31;;;21.87;44.38
11339;BME280;5724;42.684;23.252;2022-08-01T09:26:00;94183.06;;;22.18;44.31
11339;BME280;5724;42.684;23.252;2022-08-01T09:28:29;94183.50;;;22.17;44.74
11339;BME280;5724;42.684;23.252;2022-08-01T09:30:56;94177.13;;;22.33;44.89
11339;BME280;5724;42.684;23.252;2022-08-01T09:33:22;94191.84;;;22.17;43.97
11339;BME280;5724;42.684;23.252;2022-08-01T09:35:55;94181.38;;;22.37;43.98
11339;BME280;5724;42.684;23.252;2022-08-01T09:38:25;94193.88;;;22.45;44.69
11339;BME280;5724;42.684;23.252;2022-08-01T09:40:58;94189.31;;;22.06;45.22
11339;BME280;5724;42.684;23.252;2022-08-01T09:43:26;94200.84;;;22.37;45.80
11339;BME280;5724;42.684;23.252;2022-08-01T09:45:51;94181.81;;;22.36;46.63
11339;BME280;5724;42.684;23.252;2022-08-01T09:48:18;94191.84;;;22.62;45.97
11339;BME280;5724;42.684;23.252;2022-08-01T09:50:50;94185.44;;;22.78;45.66
11339;BME280;5724;42.684;23.252;2022-08-01T09:53:16;94196.22;;;22.76;46.81
11339;BME280;5724;42.684;23.252;2022-08-01T09:55:42;94196.06;;;22.67;45.51
11339;BME280;5724;42.684;23.252;2022-08-01T09:58:10;94210.06;;;22.79;44.01
11339;BME280;5724;42.684;23.252;2022-08-01T10:00:38;94189.84;;;22.92;42.79
11339;BME280;5724;42.684;23.252;2022-08-01T10:03:23;94195.91;;;23.16;44.00
11339;BME280;5724;42.684;23.252;2022-08-01T10:05:50;94190.19;;;23.06;43.93
11339;BME280;5724;42.684;23.252;2022-08-01T10:08:17;94199.69;;;23.09;44.27
11339;BME280;5724;42.684;23.252;2022-08-01T10:13:32;94189.53;;;22.73;45.26
11339;BME280;5724;42.684;23.252;2022-08-01T10:15:58;94191.84;;;22.91;45.45
11339;BME280;5724;42.684;23.252;2022-08-01T10:18:25;94202.03;;;23.10;42.37
11339;BME280;5724;42.684;23.252;2022-08-01T10:20:51;94182.53;;;23.23;42.12
11339;BME280;5724;42.684;23.252;2022-08-01T10:23:17;94176.00;;;23.55;43.10
11339;BME280;5724;42.684;23.252;2022-08-01T10:25:44;94170.41;;;23.42;42.36
11339;BME280;5724;42.684;23.252;2022-08-01T10:28:14;94200.97;;;22.63;43.07
11339;BME280;5724;42.684;23.252;2022-08-01T10:30:44;94190.81;;;22.56;44.22
11339;BME280;5724;42.684;23.252;2022-08-01T10:33:10;94185.03;;;22.63;43.60
11339;BME280;5724;42.684;23.252;2022-08-01T10:35:40;94201.94;;;22.56;43.84
11339;BME280;5724;42.684;23.252;2022-08-01T10:38:07;94183.28;;;22.40;44.32
11339;BME280;5724;42.684;23.252;2022-08-01T10:40:33;94179.38;;;22.67;43.99
11339;BME280;5724;42.684;23.252;2022-08-01T10:42:59;94171.94;;;22.76;44.76
11339;BME280;5724;42.684;23.252;2022-08-01T10:45:25;94176.56;;;22.67;43.31
11339;BME280;5724;42.684;23.252;2022-08-01T10:48:00;94181.31;;;22.82;43.44
11339;BME280;5724;42.684;23.252;2022-08-01T10:50:35;94171.22;;;22.89;43.85
11339;BME280;5724;42.684;23.252;2022-08-01T10:58:27;94171.16;;;22.76;43.65
11339;BME280;5724;42.684;23.252;2022-08-01T11:09:21;94174.78;;;22.60;43.72
11339;BME280;5724;42.684;23.252;2022-08-01T11:12:06;94160.63;;;22.54;43.82
11339;BME280;5724;42.684;23.252;2022-08-01T11:17:42;94171.78;;;22.96;44.15
11339;BME280;5724;42.684;23.252;2022-08-01T11:20:33;94141.38;;;23.14;43.99
11339;BME280;5724;42.684;23.252;2022-08-01T11:28:29;94149.50;;;22.96;44.51
11339;BME280;5724;42.684;23.252;2022-08-01T11:36:24;94146.94;;;22.89;44.42
11339;BME280;5724;42.684;23.252;2022-08-01T11:41:27;94158.44;;;22.75;44.63
11339;BME280;5724;42.684;23.252;2022-08-01T11:52:11;94138.06;;;23.20;44.28
11339;BME280;5724;42.684;23.252;2022-08-01T11:57:21;94143.97;;;23.09;43.94
11339;BME280;5724;42.684;23.252;2022-08-01T11:59:50;94147.75;;;23.28;44.38
11339;BME280;5724;42.684;23.252;2022-08-01T12:02:26;94142.53;;;23.30;42.95
11339;BME280;5724;42.684;23.252;2022-08-01T12:04:57;94145.88;;;23.37;43.26
11339;BME280;5724;42.684;23.252;2022-08-01T12:07:25;94142.06;;;23.44;42.88
11339;BME280;5724;42.684;23.252;2022-08-01T12:10:01;94125.34;;;23.19;43.11
11339;BME280;5724;42.684;23.252;2022-08-01T12:12:29;94160.03;;;23.30;42.98
11339;BME280;5724;42.684;23.252;2022-08-01T12:14:57;94140.50;;;23.18;42.96
11339;BME280;5724;42.684;23.252;2022-08-01T12:17:35;94142.53;;;23.30;43.18
11339;BME280;5724;42.684;23.252;2022-08-01T12:20:04;94132.72;;;23.63;42.21
11339;BME280;5724;42.684;23.252;2022-08-01T12:22:30;94150.78;;;23.59;42.80
11339;BME280;5724;42.684;23.252;2022-08-01T12:24:56;94131.06;;;23.66;42.64
11339;BME280;5724;42.684;23.252;2022-08-01T12:27:30;94122.84;;;23.97;42.38
11339;BME280;5724;42.684;23.252;2022-08-01T12:29:59;94142.81;;;24.30;42.05
11339;BME280;5724;42.684;23.252;2022-08-01T12:32:29;94130.94;;;24.17;41.47
11339;BME280;5724;42.684;23.252;2022-08-01T12:35:07;94132.69;;;23.89;41.99
11339;BME280;5724;42.684;23.252;2022-08-01T12:37:41;94131.56;;;23.74;42.72
11339;BME280;5724;42.684;23.252;2022-08-01T12:40:15;94136.66;;;24.01;42.34
11339;BME280;5724;42.684;23.252;2022-08-01T12:42:43;94136.59;;;24.26;41.74
11339;BME280;5724;42.684;23.252;2022-08-01T12:45:11;94142.22;;;24.48;41.34
11339;BME280;5724;42.684;23.252;2022-08-01T12:47:38;94131.22;;;24.32;41.11
11339;BME280;5724;42.684;23.252;2022-08-01T12:50:11;94113.97;;;24.68;40.60
11339;BME280;5724;42.684;23.252;2022-08-01T12:52:37;94119.88;;;24.70;40.18
11339;BME280;5724;42.684;23.252;2022-08-01T12:55:05;94127.63;;;24.88;40.95
11339;BME280;5724;42.684;23.252;2022-08-01T12:57:32;94119.69;;;24.86;39.99
11339;BME280;5724;42.684;23.252;2022-08-01T13:02:37;94118.84;;;24.20;41.00
11339;BME280;5724;42.684;23.252;2022-08-01T13:05:04;94103.22;;;24.22;41.14
11339;BME280;5724;42.684;23.252;2022-08-01T13:10:14;94113.78;;;24.40;40.79
11339;BME280;5724;42.684;23.252;2022-08-01T13:12:41;94115.84;;;24.49;40.65
11339;BME280;5724;42.684;23.252;2022-08-01T13:15:37;94115.72;;;24.96;40.32
11339;BME280;5724;42.684;23.252;2022-08-01T13:18:27;94112.34;;;25.32;39.73
11339;BME280;5724;42.684;23.252;2022-08-01T13:21:16;94108.75;;;25.01;39.67
11339;BME280;5724;42.684;23.252;2022-08-01T13:24:08;94119.56;;;25.11;40.25
11339;BME280;5724;42.684;23.252;2022-08-01T13:29:19;94108.50;;;25.39;39.37
11339;BME280;5724;42.684;23.252;2022-08-01T13:31:46;94114.13;;;25.48;39.20
11339;BME280;5724;42.684;23.252;2022-08-01T13:34:12;94117.41;;;25.56;39.30
11339;BME280;5724;42.684;23.252;2022-08-01T13:36:39;94090.66;;;25.55;39.47
11339;BME280;5724;42.684;23.252;2022-08-01T13:39:04;94107.34;;;25.58;39.27
11339;BME280;5724;42.684;23.252;2022-08-01T13:41:49;94118.38;;;25.22;39.34
11339;BME280;5724;42.684;23.252;2022-08-01T13:44:15;94106.75;;;25.32;38.89
11339;BME280;5724;42.684;23.252;2022-08-01T13:46:42;94104.53;;;25.58;39.03
11339;BME280;5724;42.684;23.252;2022-08-01T13:49:10;94091.31;;;25.19;39.69
11339;BME280;5724;42.684;23.252;2022-08-01T13:51:36;94089.16;;;25.63;39.80
11339;BME280;5724;42.684;23.252;2022-08-01T13:54:02;94112.06;;;25.71;39.06
11339;BME280;5724;42.684;23.252;2022-08-01T13:56:28;94094.44;;;25.21;40.48
11339;BME280;5724;42.684;23.252;2022-08-01T13:58:54;94092.38;;;25.52;39.92
11339;BME280;5724;42.684;23.252;2022-08-01T14:01:20;94096.31;;;25.24;40.49
11339;BME280;5724;42.684;23.252;2022-08-01T14:03:46;94101.38;;;25.47;39.47
11339;BME280;5724;42.684;23.252;2022-08-01T14:06:13;94084.63;;;25.65;39.02
11339;BME280;5724;42.684;23.252;2022-08-01T14:08:41;94093.72;;;25.79;38.62
11339;BME280;5724;42.684;23.252;2022-08-01T14:11:06;94095.91;;;25.84;38.82
11339;BME280;5724;42.684;23.252;2022-08-01T14:13:32;94101.81;;;25.86;39.68
11339;BME280;5724;42.684;23.252;2022-08-01T14:15:58;94085.25;;;25.60;39.18